sensor_id;sensor_type;location;lat;lon;timestamp;pressure;altitude;pressure_sealevel;temperature;humidity
74310;BME280;62722;51.142;17.052;2022-12-18T00:00:59;102064.13;;;-4.82;91.57
74310;BME280;62722;51.142;17.052;2022-12-18T00:03:42;102074.72;;;-4.72;91.35
74310;BME280;62722;51.142;17.052;2022-12-18T00:06:10;102072.31;;;-4.64;90.97
74310;BME280;62722;51.142;17.052;2022-12-18T00:08:43;102073.16;;;-4.65;90.63
74310;BME280;62722;51.142;17.052;2022-12-18T00:11:14;102075.84;;;-4.61;90.43
74310;BME280;62722;51.142;17.052;2022-12-18T00:13:42;102085.34;;;-4.60;90.64
74310;BME280;62722;51.142;17.052;2022-12-18T00:16:11;102085.28;;;-4.61;91.05
74310;BME280;62722;51.142;17.052;2022-12-18T00:18:39;102084.50;;;-4.59;90.97
74310;BME280;62722;51.142;17.052;2022-12-18T00:21:08;102087.78;;;-4.64;91.10
74310;BME280;62722;51.142;17.052;2022-12-18T00:23:37;102088.47;;;-4.71;91.33
74310;BME280;62722;51.142;17.052;2022-12-18T00:26:10;102086.84;;;-4.68;91.81
74310;BME280;62722;51.142;17.052;2022-12-18T00:28:43;102087.75;;;-4.66;92.06
74310;BME280;62722;51.142;17.052;2022-12-18T00:31:14;102085.94;;;-4.70;91.19
74310;BME280;62722;51.142;17.052;2022-12-18T00:33:44;102092.94;;;-4.64;91.43
74310;BME280;62722;51.142;17.052;2022-12-18T00:36:14;102095.63;;;-4.60;91.94
74310;BME280;62722;51.142;17.052;2022-12-18T00:38:43;102098.28;;;-4.57;91.35
74310;BME280;62722;51.142;17.052;2022-12-18T00:41:14;102106.06;;;-4.55;91.32
74310;BME280;62722;51.142;17.052;2022-12-18T00:44:04;102107.72;;;-4.57;91.53
74310;BME280;62722;51.142;17.052;2022-12-18T00:46:33;102112.78;;;-4.60;91.17
74310;BME280;62722;51.142;17.052;2022-12-18T00:49:01;102113.53;;;-4.64;91.95
74310;BME280;62722;51.142;17.052;2022-12-18T00:51:29;102113.28;;;-4.75;92.03
74310;BME280;62722;51.142;17.052;2022-12-18T00:53:56;102114.94;;;-4.77;91.83
74310;BME280;62722;51.142;17.052;2022-12-18T00:56:26;102115.03;;;-4.74;91.93
74310;BME280;62722;51.142;17.052;2022-12-18T00:58:53;102128.88;;;-4.69;92.76
74310;BME280;62722;51.142;17.052;2022-12-18T01:01:21;102137.94;;;-4.84;92.10
74310;BME280;62722;51.142;17.052;2022-12-18T01:03:48;102136.78;;;-4.96;92.62
74310;BME280;62722;51.142;17.052;2022-12-18T01:06:16;102145.19;;;-5.01;93.02
74310;BME280;62722;51.142;17.052;2022-12-18T01:08:44;102148.03;;;-4.92;92.82
74310;BME280;62722;51.142;17.052;2022-12-18T01:11:13;102143.84;;;-4.87;92.19
74310;BME280;62722;51.142;17.052;2022-12-18T01:13:41;102149.72;;;-4.93;92.49
74310;BME280;62722;51.142;17.052;2022-12-18T01:16:11;102154.78;;;-4.96;93.96
74310;BME280;62722;51.142;17.052;2022-12-18T01:18:39;102159.28;;;-4.88;93.74
74310;BME280;62722;51.142;17.052;2022-12-18T01:21:07;102162.06;;;-4.81;93.37
74310;BME280;62722;51.142;17.052;2022-12-18T01:23:35;102160.59;;;-4.71;93.45
74310;BME280;62722;51.142;17.052;2022-12-18T01:26:05;102166.75;;;-4.66;93.31
74310;BME280;62722;51.142;17.052;2022-12-18T01:28:32;102175.44;;;-4.61;93.13
74310;BME280;62722;51.142;17.052;2022-12-18T01:31:11;102162.69;;;-4.58;92.85
74310;BME280;62722;51.142;17.052;2022-12-18T01:33:40;102167.84;;;-4.58;92.40
74310;BME280;62722;51.142;17.052;2022-12-18T01:36:08;102173.00;;;-4.57;92.31
74310;BME280;62722;51.142;17.052;2022-12-18T01:38:35;102169.63;;;-4.54;92.94
74310;BME280;62722;51.142;17.052;2022-12-18T01:41:03;102171.44;;;-4.50;92.14
74310;BME280;62722;51.142;17.052;2022-12-18T01:43:48;102164.72;;;-4.45;92.18
74310;BME280;62722;51.142;17.052;2022-12-18T01:46:19;102174.22;;;-4.44;92.31
74310;BME280;62722;51.142;17.052;2022-12-18T01:48:50;102174.28;;;-4.41;92.16
74310;BME280;62722;51.142;17.052;2022-12-18T01:51:18;102177.00;;;-4.35;91.76
74310;BME280;62722;51.142;17.052;2022-12-18T01:53:47;102168.38;;;-4.37;91.41
74310;BME280;62722;51.142;17.052;2022-12-18T01:56:16;102178.81;;;-4.31;91.71
74310;BME280;62722;51.142;17.052;2022-12-18T01:58:50;102177.06;;;-4.32;90.64
74310;BME280;62722;51.142;17.052;2022-12-18T02:01:21;102183.97;;;-4.31;91.19
74310;BME280;62722;51.142;17.052;2022-12-18T02:03:49;102180.56;;;-4.30;90.85
74310;BME280;62722;51.142;17.052;2022-12-18T02:06:21;102183.16;;;-4.30;90.34
74310;BME280;62722;51.142;17.052;2022-12-18T02:09:00;102176.25;;;-4.31;91.02
74310;BME280;62722;51.142;17.052;2022-12-18T02:11:40;102174.50;;;-4.32;90.52
74310;BME280;62722;51.142;17.052;2022-12-18T02:14:17;102177.88;;;-4.34;90.42
74310;BME280;62722;51.142;17.052;2022-12-18T02:16:52;102182.09;;;-4.38;90.50
74310;BME280;62722;51.142;17.052;2022-12-18T02:19:34;102184.41;;;-4.47;90.87
74310;BME280;62722;51.142;17.052;2022-12-18T02:22:15;102177.56;;;-4.47;91.36
74310;BME280;62722;51.142;17.052;2022-12-18T02:24:53;102189.75;;;-4.39;91.97
74310;BME280;62722;51.142;17.052;2022-12-18T02:27:27;102191.69;;;-4.32;92.21
74310;BME280;62722;51.142;17.052;2022-12-18T02:29:57;102186.56;;;-4.31;92.37
74310;BME280;62722;51.142;17.052;2022-12-18T02:32:30;102195.25;;;-4.27;91.15
74310;BME280;62722;51.142;17.052;2022-12-18T02:35:00;102196.91;;;-4.29;91.08
74310;BME280;62722;51.142;17.052;2022-12-18T02:37:31;102207.22;;;-4.29;90.72
74310;BME280;62722;51.142;17.052;2022-12-18T02:39:59;102204.59;;;-4.31;91.10
74310;BME280;62722;51.142;17.052;2022-12-18T02:42:28;102212.25;;;-4.34;91.09
74310;BME280;62722;51.142;17.052;2022-12-18T02:44:56;102211.44;;;-4.33;91.50
74310;BME280;62722;51.142;17.052;2022-12-18T02:47:27;102208.94;;;-4.28;91.09
74310;BME280;62722;51.142;17.052;2022-12-18T02:50:02;102213.34;;;-4.24;91.30
74310;BME280;62722;51.142;17.052;2022-12-18T02:52:38;102197.88;;;-4.26;89.83
74310;BME280;62722;51.142;17.052;2022-12-18T02:55:25;102203.66;;;-4.34;90.06
74310;BME280;62722;51.142;17.052;2022-12-18T02:57:58;102199.38;;;-4.34;91.10
74310;BME280;62722;51.142;17.052;2022-12-18T03:00:34;102208.94;;;-4.30;91.22
74310;BME280;62722;51.142;17.052;2022-12-18T03:03:07;102208.94;;;-4.30;91.05
74310;BME280;62722;51.142;17.052;2022-12-18T03:05:41;102209.84;;;-4.28;90.34
74310;BME280;62722;51.142;17.052;2022-12-18T03:08:15;102209.84;;;-4.28;90.53
74310;BME280;62722;51.142;17.052;2022-12-18T03:10:48;102200.44;;;-4.26;90.60
74310;BME280;62722;51.142;17.052;2022-12-18T03:13:23;102204.84;;;-4.22;91.63
74310;BME280;62722;51.142;17.052;2022-12-18T03:15:54;102203.09;;;-4.23;91.78
74310;BME280;62722;51.142;17.052;2022-12-18T03:18:25;102213.34;;;-4.26;91.33
74310;BME280;62722;51.142;17.052;2022-12-18T03:20:55;102225.38;;;-4.25;91.78
74310;BME280;62722;51.142;17.052;2022-12-18T03:23:34;102228.06;;;-4.22;91.52
74310;BME280;62722;51.142;17.052;2022-12-18T03:26:07;102228.13;;;-4.19;92.33
74310;BME280;62722;51.142;17.052;2022-12-18T03:28:42;102223.84;;;-4.18;91.62
74310;BME280;62722;51.142;17.052;2022-12-18T03:31:12;102220.50;;;-4.14;91.48
74310;BME280;62722;51.142;17.052;2022-12-18T03:33:42;102218.78;;;-4.14;90.42
74310;BME280;62722;51.142;17.052;2022-12-18T03:36:11;102227.44;;;-4.12;92.08
74310;BME280;62722;51.142;17.052;2022-12-18T03:38:39;102227.38;;;-4.15;91.61
74310;BME280;62722;51.142;17.052;2022-12-18T03:41:11;102224.81;;;-4.13;91.27
74310;BME280;62722;51.142;17.052;2022-12-18T03:43:49;102231.78;;;-4.09;90.88
74310;BME280;62722;51.142;17.052;2022-12-18T03:46:24;102228.31;;;-4.11;90.04
74310;BME280;62722;51.142;17.052;2022-12-18T03:48:59;102226.56;;;-4.12;90.87
74310;BME280;62722;51.142;17.052;2022-12-18T03:51:35;102234.38;;;-4.09;91.37
74310;BME280;62722;51.142;17.052;2022-12-18T03:54:06;102232.75;;;-4.06;91.56
74310;BME280;62722;51.142;17.052;2022-12-18T03:56:38;102236.97;;;-4.09;91.04
74310;BME280;62722;51.142;17.052;2022-12-18T03:59:10;102245.16;;;-4.24;90.42
74310;BME280;62722;51.142;17.052;2022-12-18T04:01:41;102249.31;;;-4.30;90.58
74310;BME280;62722;51.142;17.052;2022-12-18T04:04:12;102255.34;;;-4.30;91.79
74310;BME280;62722;51.142;17.052;2022-12-18T04:06:41;102255.47;;;-4.25;92.01
74310;BME280;62722;51.142;17.052;2022-12-18T04:09:09;102252.13;;;-4.21;91.29
74310;BME280;62722;51.142;17.052;2022-12-18T04:11:36;102252.22;;;-4.17;92.44
74310;BME280;62722;51.142;17.052;2022-12-18T04:14:04;102243.75;;;-4.13;91.65
74310;BME280;62722;51.142;17.052;2022-12-18T04:16:32;102249.03;;;-4.08;92.22
74310;BME280;62722;51.142;17.052;2022-12-18T04:19:00;102252.44;;;-4.09;91.50
74310;BME280;62722;51.142;17.052;2022-12-18T04:21:27;102265.38;;;-4.08;91.54
74310;BME280;62722;51.142;17.052;2022-12-18T04:23:54;102261.88;;;-4.10;90.14
74310;BME280;62722;51.142;17.052;2022-12-18T04:26:22;102267.91;;;-4.09;90.43
74310;BME280;62722;51.142;17.052;2022-12-18T04:28:49;102272.22;;;-4.08;90.52
74310;BME280;62722;51.142;17.052;2022-12-18T04:31:16;102277.34;;;-4.10;90.46
74310;BME280;62722;51.142;17.052;2022-12-18T04:33:45;102279.00;;;-4.12;90.97
74310;BME280;62722;51.142;17.052;2022-12-18T04:36:12;102278.06;;;-4.15;89.88
74310;BME280;62722;51.142;17.052;2022-12-18T04:38:40;102282.34;;;-4.16;89.96
74310;BME280;62722;51.142;17.052;2022-12-18T04:41:07;102278.19;;;-4.11;90.81
74310;BME280;62722;51.142;17.052;2022-12-18T04:43:34;102280.66;;;-4.14;90.51
74310;BME280;62722;51.142;17.052;2022-12-18T04:46:02;102294.41;;;-4.15;90.57
74310;BME280;62722;51.142;17.052;2022-12-18T04:48:29;102294.41;;;-4.15;90.39
74310;BME280;62722;51.142;17.052;2022-12-18T04:50:58;102302.22;;;-4.12;90.35
74310;BME280;62722;51.142;17.052;2022-12-18T04:53:25;102295.38;;;-4.10;90.48
74310;BME280;62722;51.142;17.052;2022-12-18T04:56:02;102306.56;;;-4.09;90.55
74310;BME280;62722;51.142;17.052;2022-12-18T04:58:30;102299.84;;;-4.04;91.25
74310;BME280;62722;51.142;17.052;2022-12-18T05:00:57;102304.94;;;-4.07;90.25
74310;BME280;62722;51.142;17.052;2022-12-18T05:03:24;102309.22;;;-4.06;89.87
74310;BME280;62722;51.142;17.052;2022-12-18T05:05:52;102309.16;;;-4.09;89.25
74310;BME280;62722;51.142;17.052;2022-12-18T05:08:20;102318.53;;;-4.13;89.26
74310;BME280;62722;51.142;17.052;2022-12-18T05:10:47;102327.00;;;-4.17;89.90
74310;BME280;62722;51.142;17.052;2022-12-18T05:13:15;102313.13;;;-4.22;90.39
74310;BME280;62722;51.142;17.052;2022-12-18T05:15:51;102317.53;;;-4.18;90.89
74310;BME280;62722;51.142;17.052;2022-12-18T05:18:19;102315.78;;;-4.19;90.07
74310;BME280;62722;51.142;17.052;2022-12-18T05:20:47;102320.94;;;-4.19;89.67
74310;BME280;62722;51.142;17.052;2022-12-18T05:23:16;102314.97;;;-4.18;90.79
74310;BME280;62722;51.142;17.052;2022-12-18T05:25:50;102323.75;;;-4.10;90.82
74310;BME280;62722;51.142;17.052;2022-12-18T05:28:19;102316.06;;;-4.08;90.76
74310;BME280;62722;51.142;17.052;2022-12-18T05:30:48;102326.38;;;-4.08;89.81
74310;BME280;62722;51.142;17.052;2022-12-18T05:33:17;102319.34;;;-4.14;90.57
74310;BME280;62722;51.142;17.052;2022-12-18T05:35:49;102335.66;;;-4.15;90.72
74310;BME280;62722;51.142;17.052;2022-12-18T05:38:16;102328.59;;;-4.22;89.43
74310;BME280;62722;51.142;17.052;2022-12-18T05:40:43;102332.06;;;-4.20;89.71
74310;BME280;62722;51.142;17.052;2022-12-18T05:43:12;102334.66;;;-4.20;90.35
74310;BME280;62722;51.142;17.052;2022-12-18T05:45:40;102333.03;;;-4.16;90.98
74310;BME280;62722;51.142;17.052;2022-12-18T05:48:08;102334.00;;;-4.13;89.89
74310;BME280;62722;51.142;17.052;2022-12-18T05:50:35;102346.13;;;-4.10;89.94
74310;BME280;62722;51.142;17.052;2022-12-18T05:53:03;102346.06;;;-4.12;90.18
74310;BME280;62722;51.142;17.052;2022-12-18T05:55:33;102360.72;;;-4.11;90.32
74310;BME280;62722;51.142;17.052;2022-12-18T05:58:00;102359.84;;;-4.10;89.72
74310;BME280;62722;51.142;17.052;2022-12-18T06:00:29;102370.88;;;-4.15;89.51
74310;BME280;62722;51.142;17.052;2022-12-18T06:02:58;102363.09;;;-4.17;87.49
74310;BME280;62722;51.142;17.052;2022-12-18T06:05:26;102370.91;;;-4.14;89.15
74310;BME280;62722;51.142;17.052;2022-12-18T06:07:53;102363.16;;;-4.15;89.15
74310;BME280;62722;51.142;17.052;2022-12-18T06:10:20;102372.59;;;-4.16;88.90
74310;BME280;62722;51.142;17.052;2022-12-18T06:12:48;102370.69;;;-4.23;89.08
74310;BME280;62722;51.142;17.052;2022-12-18T06:15:15;102372.28;;;-4.26;89.11
74310;BME280;62722;51.142;17.052;2022-12-18T06:17:44;102379.81;;;-4.34;88.41
74310;BME280;62722;51.142;17.052;2022-12-18T06:20:11;102384.97;;;-4.34;90.26
74310;BME280;62722;51.142;17.052;2022-12-18T06:22:38;102393.44;;;-4.38;89.40
74310;BME280;62722;51.142;17.052;2022-12-18T06:25:06;102386.44;;;-4.42;89.34
74310;BME280;62722;51.142;17.052;2022-12-18T06:27:33;102395.84;;;-4.44;88.88
74310;BME280;62722;51.142;17.052;2022-12-18T06:30:00;102396.75;;;-4.42;88.95
74310;BME280;62722;51.142;17.052;2022-12-18T06:32:28;102399.38;;;-4.40;89.27
74310;BME280;62722;51.142;17.052;2022-12-18T06:34:57;102390.91;;;-4.36;89.60
74310;BME280;62722;51.142;17.052;2022-12-18T06:37:24;102403.91;;;-4.32;88.66
74310;BME280;62722;51.142;17.052;2022-12-18T06:39:52;102412.50;;;-4.33;88.34
74310;BME280;62722;51.142;17.052;2022-12-18T06:42:19;102414.19;;;-4.33;88.56
74310;BME280;62722;51.142;17.052;2022-12-18T06:44:46;102416.84;;;-4.30;88.79
74310;BME280;62722;51.142;17.052;2022-12-18T06:47:13;102415.97;;;-4.31;89.55
74310;BME280;62722;51.142;17.052;2022-12-18T06:49:40;102409.91;;;-4.33;88.44
74310;BME280;62722;51.142;17.052;2022-12-18T06:52:09;102415.81;;;-4.37;88.54
74310;BME280;62722;51.142;17.052;2022-12-18T06:54:36;102424.38;;;-4.38;89.48
74310;BME280;62722;51.142;17.052;2022-12-18T06:57:03;102425.75;;;-4.49;87.06
74310;BME280;62722;51.142;17.052;2022-12-18T06:59:31;102429.28;;;-4.46;89.32
74310;BME280;62722;51.142;17.052;2022-12-18T07:01:58;102428.63;;;-4.40;88.66
74310;BME280;62722;51.142;17.052;2022-12-18T07:04:28;102434.75;;;-4.35;89.62
74310;BME280;62722;51.142;17.052;2022-12-18T07:06:55;102425.50;;;-4.28;89.53
74310;BME280;62722;51.142;17.052;2022-12-18T07:09:24;102426.47;;;-4.25;88.24
74310;BME280;62722;51.142;17.052;2022-12-18T07:11:51;102429.88;;;-4.26;89.08
74310;BME280;62722;51.142;17.052;2022-12-18T07:14:18;102438.53;;;-4.24;87.96
74310;BME280;62722;51.142;17.052;2022-12-18T07:16:46;102446.13;;;-4.28;87.87
74310;BME280;62722;51.142;17.052;2022-12-18T07:19:13;102436.59;;;-4.31;88.89
74310;BME280;62722;51.142;17.052;2022-12-18T07:21:41;102446.75;;;-4.37;87.90
74310;BME280;62722;51.142;17.052;2022-12-18T07:24:08;102445.72;;;-4.42;88.57
74310;BME280;62722;51.142;17.052;2022-12-18T07:26:37;102447.28;;;-4.47;88.24
74310;BME280;62722;51.142;17.052;2022-12-18T07:29:04;102451.59;;;-4.46;88.70
74310;BME280;62722;51.142;17.052;2022-12-18T07:31:31;102456.97;;;-4.40;88.93
74310;BME280;62722;51.142;17.052;2022-12-18T07:33:58;102450.94;;;-4.40;88.24
74310;BME280;62722;51.142;17.052;2022-12-18T07:36:26;102457.94;;;-4.36;88.67
74310;BME280;62722;51.142;17.052;2022-12-18T07:38:53;102457.13;;;-4.34;88.85
74310;BME280;62722;51.142;17.052;2022-12-18T07:41:20;102470.19;;;-4.29;87.79
74310;BME280;62722;51.142;17.052;2022-12-18T07:43:49;102474.53;;;-4.27;87.58
74310;BME280;62722;51.142;17.052;2022-12-18T07:46:17;102475.56;;;-4.22;88.13
74310;BME280;62722;51.142;17.052;2022-12-18T07:48:45;102468.72;;;-4.20;88.31
74310;BME280;62722;51.142;17.052;2022-12-18T07:51:12;102474.53;;;-4.27;87.60
74310;BME280;62722;51.142;17.052;2022-12-18T07:53:40;102472.69;;;-4.31;88.21
74310;BME280;62722;51.142;17.052;2022-12-18T07:56:10;102474.44;;;-4.30;88.65
74310;BME280;62722;51.142;17.052;2022-12-18T07:58:38;102466.72;;;-4.30;89.44
74310;BME280;62722;51.142;17.052;2022-12-18T08:01:09;102469.00;;;-4.39;87.86
74310;BME280;62722;51.142;17.052;2022-12-18T08:03:37;102483.34;;;-4.47;87.99
74310;BME280;62722;51.142;17.052;2022-12-18T08:06:06;102479.94;;;-4.48;87.96
74310;BME280;62722;51.142;17.052;2022-12-18T08:08:34;102484.28;;;-4.45;89.89
74310;BME280;62722;51.142;17.052;2022-12-18T08:11:02;102488.41;;;-4.50;88.70
74310;BME280;62722;51.142;17.052;2022-12-18T08:13:29;102496.75;;;-4.59;88.62
74310;BME280;62722;51.142;17.052;2022-12-18T08:15:57;102499.91;;;-4.67;88.45
74310;BME280;62722;51.142;17.052;2022-12-18T08:18:26;102503.53;;;-4.62;88.84
74310;BME280;62722;51.142;17.052;2022-12-18T08:20:54;102500.34;;;-4.54;90.25
74310;BME280;62722;51.142;17.052;2022-12-18T08:23:22;102510.16;;;-4.42;88.64
74310;BME280;62722;51.142;17.052;2022-12-18T08:25:49;102509.97;;;-4.48;86.31
74310;BME280;62722;51.142;17.052;2022-12-18T08:28:17;102525.63;;;-4.42;87.42
74310;BME280;62722;51.142;17.052;2022-12-18T08:30:45;102517.88;;;-4.42;87.14
74310;BME280;62722;51.142;17.052;2022-12-18T08:33:12;102519.81;;;-4.35;88.50
74310;BME280;62722;51.142;17.052;2022-12-18T08:35:42;102520.47;;;-4.42;86.55
74310;BME280;62722;51.142;17.052;2022-12-18T08:38:09;102530.03;;;-4.38;87.83
74310;BME280;62722;51.142;17.052;2022-12-18T08:40:37;102539.44;;;-4.40;88.26
74310;BME280;62722;51.142;17.052;2022-12-18T08:43:04;102523.13;;;-4.39;87.91
74310;BME280;62722;51.142;17.052;2022-12-18T08:45:49;102531.97;;;-4.31;87.66
74310;BME280;62722;51.142;17.052;2022-12-18T08:48:16;102530.94;;;-4.36;87.81
74310;BME280;62722;51.142;17.052;2022-12-18T08:50:53;102538.84;;;-4.31;88.86
74310;BME280;62722;51.142;17.052;2022-12-18T08:53:21;102541.56;;;-4.27;86.45
74310;BME280;62722;51.142;17.052;2022-12-18T08:55:48;102540.53;;;-4.32;86.50
74310;BME280;62722;51.142;17.052;2022-12-18T08:58:15;102541.56;;;-4.27;86.92
74310;BME280;62722;51.142;17.052;2022-12-18T09:00:42;102545.34;;;-4.16;87.46
74310;BME280;62722;51.142;17.052;2022-12-18T09:03:11;102543.91;;;-4.06;87.46
74310;BME280;62722;51.142;17.052;2022-12-18T09:05:39;102531.91;;;-4.06;86.54
74310;BME280;62722;51.142;17.052;2022-12-18T09:08:07;102536.47;;;-3.97;87.00
74310;BME280;62722;51.142;17.052;2022-12-18T09:10:41;102534.63;;;-4.01;87.05
74310;BME280;62722;51.142;17.052;2022-12-18T09:13:09;102519.28;;;-3.97;87.71
74310;BME280;62722;51.142;17.052;2022-12-18T09:15:40;102518.19;;;-4.05;85.35
74310;BME280;62722;51.142;17.052;2022-12-18T09:18:10;102507.78;;;-4.08;85.92
74310;BME280;62722;51.142;17.052;2022-12-18T09:20:37;102509.41;;;-4.10;86.37
74310;BME280;62722;51.142;17.052;2022-12-18T09:23:05;102506.16;;;-4.04;86.06
74310;BME280;62722;51.142;17.052;2022-12-18T09:25:34;102493.88;;;-4.13;85.74
74310;BME280;62722;51.142;17.052;2022-12-18T09:28:06;102493.31;;;-4.31;85.98
74310;BME280;62722;51.142;17.052;2022-12-18T09:30:33;102486.69;;;-4.23;87.36
74310;BME280;62722;51.142;17.052;2022-12-18T09:33:03;102486.88;;;-4.17;86.53
74310;BME280;62722;51.142;17.052;2022-12-18T09:35:32;102483.97;;;-4.27;86.11
74310;BME280;62722;51.142;17.052;2022-12-18T09:37:59;102479.88;;;-4.21;87.12
74310;BME280;62722;51.142;17.052;2022-12-18T09:40:31;102483.28;;;-4.22;87.33
74310;BME280;62722;51.142;17.052;2022-12-18T09:43:04;102475.72;;;-4.16;86.76
74310;BME280;62722;51.142;17.052;2022-12-18T09:45:39;102469.19;;;-4.05;87.65
74310;BME280;62722;51.142;17.052;2022-12-18T09:48:10;102472.94;;;-3.94;86.70
74310;BME280;62722;51.142;17.052;2022-12-18T09:50:44;102471.06;;;-3.99;85.11
74310;BME280;62722;51.142;17.052;2022-12-18T09:53:15;102477.19;;;-4.24;85.36
74310;BME280;62722;51.142;17.052;2022-12-18T09:55:45;102476.22;;;-4.29;86.65
74310;BME280;62722;51.142;17.052;2022-12-18T09:58:17;102473.16;;;-4.16;88.05
74310;BME280;62722;51.142;17.052;2022-12-18T10:00:46;102476.13;;;-4.02;87.46
74310;BME280;62722;51.142;17.052;2022-12-18T10:03:14;102476.41;;;-3.92;86.12
74310;BME280;62722;51.142;17.052;2022-12-18T10:05:51;102482.56;;;-3.88;85.05
74310;BME280;62722;51.142;17.052;2022-12-18T10:08:27;102482.34;;;-3.96;85.55
74310;BME280;62722;51.142;17.052;2022-12-18T10:11:10;102477.72;;;-4.06;86.46
74310;BME280;62722;51.142;17.052;2022-12-18T10:13:42;102473.84;;;-4.21;86.25
74310;BME280;62722;51.142;17.052;2022-12-18T10:16:16;102495.16;;;-4.27;85.96
74310;BME280;62722;51.142;17.052;2022-12-18T10:19:16;102482.03;;;-4.34;86.26
74310;BME280;62722;51.142;17.052;2022-12-18T10:21:50;102493.69;;;-4.19;86.98
74310;BME280;62722;51.142;17.052;2022-12-18T10:24:26;102495.88;;;-4.03;86.13
74310;BME280;62722;51.142;17.052;2022-12-18T10:27:09;102497.13;;;-3.90;86.49
74310;BME280;62722;51.142;17.052;2022-12-18T10:29:39;102496.44;;;-3.84;86.35
74310;BME280;62722;51.142;17.052;2022-12-18T10:32:09;102485.66;;;-4.00;85.13
74310;BME280;62722;51.142;17.052;2022-12-18T10:34:39;102480.88;;;-4.16;86.54
74310;BME280;62722;51.142;17.052;2022-12-18T10:37:15;102486.22;;;-4.10;87.00
74310;BME280;62722;51.142;17.052;2022-12-18T10:39:43;102488.94;;;-4.05;86.80
74310;BME280;62722;51.142;17.052;2022-12-18T10:42:16;102488.94;;;-4.05;85.16
74310;BME280;62722;51.142;17.052;2022-12-18T10:44:45;102487.06;;;-4.11;85.93
74310;BME280;62722;51.142;17.052;2022-12-18T10:47:15;102497.00;;;-4.23;85.77
74310;BME280;62722;51.142;17.052;2022-12-18T10:49:47;102488.88;;;-4.36;86.22
74310;BME280;62722;51.142;17.052;2022-12-18T10:52:18;102486.53;;;-4.29;87.45
74310;BME280;62722;51.142;17.052;2022-12-18T10:54:48;102494.28;;;-4.27;87.34
74310;BME280;62722;51.142;17.052;2022-12-18T10:57:32;102496.78;;;-4.30;86.94
74310;BME280;62722;51.142;17.052;2022-12-18T11:00:21;102496.53;;;-4.38;87.15
74310;BME280;62722;51.142;17.052;2022-12-18T11:02:49;102498.22;;;-4.40;87.88
74310;BME280;62722;51.142;17.052;2022-12-18T11:05:29;102498.47;;;-4.31;87.96
74310;BME280;62722;51.142;17.052;2022-12-18T11:07:57;102492.09;;;-4.14;87.18
74310;BME280;62722;51.142;17.052;2022-12-18T11:10:28;102497.38;;;-4.11;86.22
74310;BME280;62722;51.142;17.052;2022-12-18T11:13:11;102503.59;;;-4.03;86.39
74310;BME280;62722;51.142;17.052;2022-12-18T11:15:41;102502.03;;;-3.99;87.15
74310;BME280;62722;51.142;17.052;2022-12-18T11:18:16;102507.94;;;-4.02;86.08
74310;BME280;62722;51.142;17.052;2022-12-18T11:20:51;102512.22;;;-4.02;85.88
74310;BME280;62722;51.142;17.052;2022-12-18T11:23:21;102518.56;;;-3.92;87.52
74310;BME280;62722;51.142;17.052;2022-12-18T11:25:55;102529.53;;;-4.00;86.37
74310;BME280;62722;51.142;17.052;2022-12-18T11:28:37;102526.81;;;-4.03;86.61
74310;BME280;62722;51.142;17.052;2022-12-18T11:31:24;102520.94;;;-3.99;86.68
74310;BME280;62722;51.142;17.052;2022-12-18T11:34:01;102522.03;;;-3.90;85.95
74310;BME280;62722;51.142;17.052;2022-12-18T11:36:33;102518.63;;;-3.89;86.57
74310;BME280;62722;51.142;17.052;2022-12-18T11:39:19;102510.38;;;-3.78;85.63
74310;BME280;62722;51.142;17.052;2022-12-18T11:41:52;102513.34;;;-3.64;85.73
74310;BME280;62722;51.142;17.052;2022-12-18T11:44:44;102501.19;;;-3.68;84.91
74310;BME280;62722;51.142;17.052;2022-12-18T11:47:22;102495.41;;;-3.89;85.02
74310;BME280;62722;51.142;17.052;2022-12-18T11:49:52;102500.34;;;-3.97;86.85
74310;BME280;62722;51.142;17.052;2022-12-18T11:52:25;102491.22;;;-3.86;86.46
74310;BME280;62722;51.142;17.052;2022-12-18T11:54:56;102483.53;;;-3.84;86.24
74310;BME280;62722;51.142;17.052;2022-12-18T11:57:32;102489.50;;;-3.85;86.34
74310;BME280;62722;51.142;17.052;2022-12-18T12:00:13;102485.75;;;-3.97;86.42
74310;BME280;62722;51.142;17.052;2022-12-18T12:03:10;102482.00;;;-4.08;85.83
74310;BME280;62722;51.142;17.052;2022-12-18T12:05:55;102485.22;;;-4.15;86.83
74310;BME280;62722;51.142;17.052;2022-12-18T12:08:34;102488.75;;;-4.11;86.48
74310;BME280;62722;51.142;17.052;2022-12-18T12:11:08;102485.38;;;-4.09;86.49
74310;BME280;62722;51.142;17.052;2022-12-18T12:13:44;102484.88;;;-3.97;87.52
74310;BME280;62722;51.142;17.052;2022-12-18T12:16:17;102491.06;;;-3.90;87.46
74310;BME280;62722;51.142;17.052;2022-12-18T12:19:00;102487.59;;;-3.92;86.04
74310;BME280;62722;51.142;17.052;2022-12-18T12:21:35;102486.56;;;-3.98;85.79
74310;BME280;62722;51.142;17.052;2022-12-18T12:24:20;102485.75;;;-3.97;86.21
74310;BME280;62722;51.142;17.052;2022-12-18T12:26:57;102474.47;;;-4.00;85.62
74310;BME280;62722;51.142;17.052;2022-12-18T12:29:41;102489.00;;;-4.02;85.76
74310;BME280;62722;51.142;17.052;2022-12-18T12:32:22;102484.25;;;-4.18;85.35
74310;BME280;62722;51.142;17.052;2022-12-18T12:35:06;102489.13;;;-4.27;86.91
74310;BME280;62722;51.142;17.052;2022-12-18T12:37:41;102483.41;;;-4.46;86.79
74310;BME280;62722;51.142;17.052;2022-12-18T12:40:18;102482.34;;;-4.52;87.04
74310;BME280;62722;51.142;17.052;2022-12-18T12:42:52;102480.41;;;-4.59;87.23
74310;BME280;62722;51.142;17.052;2022-12-18T12:45:44;102475.34;;;-4.56;87.47
74310;BME280;62722;51.142;17.052;2022-12-18T12:48:18;102474.72;;;-4.49;87.44
74310;BME280;62722;51.142;17.052;2022-12-18T12:50:49;102485.84;;;-4.50;87.64
74310;BME280;62722;51.142;17.052;2022-12-18T12:53:25;102481.78;;;-4.44;87.38
74310;BME280;62722;51.142;17.052;2022-12-18T12:55:53;102479.31;;;-4.39;86.83
74310;BME280;62722;51.142;17.052;2022-12-18T12:58:28;102474.22;;;-4.37;86.53
74310;BME280;62722;51.142;17.052;2022-12-18T13:01:08;102482.19;;;-4.30;86.32